sensor_id;sensor_type;location;lat;lon;timestamp;P1;durP1;ratioP1;P2;durP2;ratioP2
66663;SDS011;59683;51.428;-1.994;2023-08-17T04:49:26;60.07;;;20.57;;
66663;SDS011;59683;51.428;-1.994;2023-08-17T04:51:52;53.50;;;19.90;;
66663;SDS011;59683;51.428;-1.994;2023-08-17T04:54:17;52.47;;;19.67;;
66663;SDS011;59683;51.428;-1.994;2023-08-17T04:56:43;47.73;;;19.43;;
66663;SDS011;59683;51.428;-1.994;2023-08-17T04:59:08;53.13;;;19.57;;
66663;SDS011;59683;51.428;-1.994;2023-08-17T05:01:34;46.97;;;19.57;;
66663;SDS011;59683;51.428;-1.994;2023-08-17T05:04:00;53.30;;;19.13;;
66663;SDS011;59683;51.428;-1.994;2023-08-17T05:06:27;40.03;;;18.20;;
66663;SDS011;59683;51.428;-1.994;2023-08-17T05:08:53;36.83;;;16.37;;
66663;SDS011;59683;51.428;-1.994;2023-08-17T05:11:18;40.07;;;16.73;;
66663;SDS011;59683;51.428;-1.994;2023-08-17T05:13:44;41.63;;;16.83;;
66663;SDS011;59683;51.428;-1.994;2023-08-17T05:16:09;35.53;;;14.87;;
66663;SDS011;59683;51.428;-1.994;2023-08-17T05:18:35;35.93;;;16.00;;
66663;SDS011;59683;51.428;-1.994;2023-08-17T05:21:00;37.97;;;15.90;;
66663;SDS011;59683;51.428;-1.994;2023-08-17T05:23:25;39.23;;;15.10;;
66663;SDS011;59683;51.428;-1.994;2023-08-17T05:25:51;38.63;;;16.47;;
66663;SDS011;59683;51.428;-1.994;2023-08-17T05:28:16;30.27;;;14.40;;
66663;SDS011;59683;51.428;-1.994;2023-08-17T05:30:42;33.57;;;14.73;;
66663;SDS011;59683;51.428;-1.994;2023-08-17T05:33:08;36.33;;;16.33;;
66663;SDS011;59683;51.428;-1.994;2023-08-17T05:35:34;34.90;;;15.83;;
66663;SDS011;59683;51.428;-1.994;2023-08-17T05:37:59;33.53;;;15.60;;
66663;SDS011;59683;51.428;-1.994;2023-08-17T05:40:25;37.30;;;15.67;;
66663;SDS011;59683;51.428;-1.994;2023-08-17T05:42:51;33.07;;;16.13;;
66663;SDS011;59683;51.428;-1.994;2023-08-17T05:45:16;34.10;;;16.40;;
66663;SDS011;59683;51.428;-1.994;2023-08-17T05:47:42;30.63;;;15.17;;
66663;SDS011;59683;51.428;-1.994;2023-08-17T05:50:07;27.63;;;14.93;;
66663;SDS011;59683;51.428;-1.994;2023-08-17T05:52:33;32.23;;;15.20;;
66663;SDS011;59683;51.428;-1.994;2023-08-17T05:54:58;29.23;;;14.43;;
66663;SDS011;59683;51.428;-1.994;2023-08-17T05:57:23;29.33;;;13.53;;
66663;SDS011;59683;51.428;-1.994;2023-08-17T05:59:49;31.03;;;14.70;;
66663;SDS011;59683;51.428;-1.994;2023-08-17T06:02:14;28.83;;;14.40;;
66663;SDS011;59683;51.428;-1.994;2023-08-17T06:04:40;27.33;;;14.13;;
66663;SDS011;59683;51.428;-1.994;2023-08-17T06:07:05;29.87;;;15.43;;
66663;SDS011;59683;51.428;-1.994;2023-08-17T06:09:31;27.30;;;13.70;;
66663;SDS011;59683;51.428;-1.994;2023-08-17T06:11:57;26.83;;;14.13;;
66663;SDS011;59683;51.428;-1.994;2023-08-17T06:14:22;27.43;;;15.20;;
66663;SDS011;59683;51.428;-1.994;2023-08-17T06:16:47;28.10;;;14.27;;
66663;SDS011;59683;51.428;-1.994;2023-08-17T06:19:13;28.40;;;15.13;;
66663;SDS011;59683;51.428;-1.994;2023-08-17T06:21:38;25.23;;;13.93;;
66663;SDS011;59683;51.428;-1.994;2023-08-17T06:24:04;28.23;;;13.30;;
66663;SDS011;59683;51.428;-1.994;2023-08-17T06:26:30;28.63;;;14.70;;
66663;SDS011;59683;51.428;-1.994;2023-08-17T06:28:55;29.17;;;14.70;;
66663;SDS011;59683;51.428;-1.994;2023-08-17T06:31:21;26.63;;;14.53;;
66663;SDS011;59683;51.428;-1.994;2023-08-17T06:33:48;21.57;;;13.50;;
66663;SDS011;59683;51.428;-1.994;2023-08-17T06:36:13;18.83;;;12.47;;
66663;SDS011;59683;51.428;-1.994;2023-08-17T06:38:41;26.53;;;13.23;;
66663;SDS011;59683;51.428;-1.994;2023-08-17T06:41:07;22.40;;;12.67;;
66663;SDS011;59683;51.428;-1.994;2023-08-17T06:43:33;25.00;;;13.57;;
66663;SDS011;59683;51.428;-1.994;2023-08-17T06:45:58;22.43;;;13.23;;
66663;SDS011;59683;51.428;-1.994;2023-08-17T06:48:25;18.73;;;11.67;;
66663;SDS011;59683;51.428;-1.994;2023-08-17T06:50:50;16.83;;;10.87;;
66663;SDS011;59683;51.428;-1.994;2023-08-17T06:53:16;21.10;;;11.57;;
66663;SDS011;59683;51.428;-1.994;2023-08-17T06:55:41;22.20;;;12.43;;
66663;SDS011;59683;51.428;-1.994;2023-08-17T06:58:07;18.73;;;11.37;;
66663;SDS011;59683;51.428;-1.994;2023-08-17T07:00:32;17.23;;;11.53;;
66663;SDS011;59683;51.428;-1.994;2023-08-17T07:02:58;19.70;;;11.33;;
66663;SDS011;59683;51.428;-1.994;2023-08-17T07:05:24;21.47;;;11.97;;
66663;SDS011;59683;51.428;-1.994;2023-08-17T07:07:49;19.20;;;10.87;;
66663;SDS011;59683;51.428;-1.994;2023-08-17T07:10:15;19.83;;;10.83;;
66663;SDS011;59683;51.428;-1.994;2023-08-17T07:12:40;18.50;;;11.13;;
66663;SDS011;59683;51.428;-1.994;2023-08-17T07:15:06;17.40;;;10.27;;
66663;SDS011;59683;51.428;-1.994;2023-08-17T07:17:32;17.83;;;10.23;;
66663;SDS011;59683;51.428;-1.994;2023-08-17T07:19:59;16.23;;;10.73;;
66663;SDS011;59683;51.428;-1.994;2023-08-17T07:22:25;15.23;;;9.43;;
66663;SDS011;59683;51.428;-1.994;2023-08-17T07:24:50;17.03;;;9.67;;
66663;SDS011;59683;51.428;-1.994;2023-08-17T07:27:15;15.43;;;8.63;;
66663;SDS011;59683;51.428;-1.994;2023-08-17T07:29:41;12.43;;;7.57;;
66663;SDS011;59683;51.428;-1.994;2023-08-17T07:32:06;12.47;;;7.13;;
66663;SDS011;59683;51.428;-1.994;2023-08-17T07:34:32;15.60;;;7.47;;
66663;SDS011;59683;51.428;-1.994;2023-08-17T07:36:58;12.17;;;6.80;;
66663;SDS011;59683;51.428;-1.994;2023-08-17T07:39:23;13.50;;;7.10;;
66663;SDS011;59683;51.428;-1.994;2023-08-17T07:41:49;13.03;;;7.47;;
66663;SDS011;59683;51.428;-1.994;2023-08-17T07:44:14;10.53;;;6.63;;
66663;SDS011;59683;51.428;-1.994;2023-08-17T07:46:40;13.03;;;7.40;;
66663;SDS011;59683;51.428;-1.994;2023-08-17T07:49:05;20.07;;;8.20;;
66663;SDS011;59683;51.428;-1.994;2023-08-17T07:51:31;11.53;;;6.60;;
66663;SDS011;59683;51.428;-1.994;2023-08-17T07:53:59;11.53;;;7.20;;
66663;SDS011;59683;51.428;-1.994;2023-08-17T07:56:25;12.40;;;6.47;;
66663;SDS011;59683;51.428;-1.994;2023-08-17T07:58:50;10.15;;;6.63;;
66663;SDS011;59683;51.428;-1.994;2023-08-17T08:01:15;14.68;;;7.68;;
66663;SDS011;59683;51.428;-1.994;2023-08-17T08:03:41;12.40;;;5.63;;
66663;SDS011;59683;51.428;-1.994;2023-08-17T08:06:06;10.10;;;6.28;;
66663;SDS011;59683;51.428;-1.994;2023-08-17T08:08:32;9.98;;;6.00;;
66663;SDS011;59683;51.428;-1.994;2023-08-17T08:10:58;13.05;;;6.50;;
66663;SDS011;59683;51.428;-1.994;2023-08-17T08:13:23;15.23;;;5.97;;
66663;SDS011;59683;51.428;-1.994;2023-08-17T08:15:49;13.57;;;6.88;;
66663;SDS011;59683;51.428;-1.994;2023-08-17T08:18:14;11.48;;;6.72;;
66663;SDS011;59683;51.428;-1.994;2023-08-17T08:20:40;12.75;;;6.55;;
66663;SDS011;59683;51.428;-1.994;2023-08-17T08:23:05;10.63;;;5.95;;
66663;SDS011;59683;51.428;-1.994;2023-08-17T08:25:31;12.93;;;6.22;;
66663;SDS011;59683;51.428;-1.994;2023-08-17T08:27:56;10.38;;;6.28;;
66663;SDS011;59683;51.428;-1.994;2023-08-17T08:30:21;10.15;;;6.47;;
66663;SDS011;59683;51.428;-1.994;2023-08-17T08:32:47;10.05;;;6.85;;
66663;SDS011;59683;51.428;-1.994;2023-08-17T08:35:12;9.60;;;5.32;;
66663;SDS011;59683;51.428;-1.994;2023-08-17T08:37:38;9.40;;;5.10;;
66663;SDS011;59683;51.428;-1.994;2023-08-17T08:40:03;10.93;;;5.72;;
66663;SDS011;59683;51.428;-1.994;2023-08-17T08:42:35;8.75;;;5.32;;
66663;SDS011;59683;51.428;-1.994;2023-08-17T08:45:00;10.55;;;6.30;;
66663;SDS011;59683;51.428;-1.994;2023-08-17T08:47:26;9.70;;;5.85;;
66663;SDS011;59683;51.428;-1.994;2023-08-17T08:49:59;9.05;;;5.70;;
66663;SDS011;59683;51.428;-1.994;2023-08-17T08:52:50;10.02;;;5.90;;
66663;SDS011;59683;51.428;-1.994;2023-08-17T08:55:26;9.48;;;5.22;;
66663;SDS011;59683;51.428;-1.994;2023-08-17T09:00:20;8.10;;;5.57;;
66663;SDS011;59683;51.428;-1.994;2023-08-17T09:02:47;7.82;;;4.90;;
66663;SDS011;59683;51.428;-1.994;2023-08-17T09:05:14;9.90;;;5.18;;
66663;SDS011;59683;51.428;-1.994;2023-08-17T09:07:40;9.13;;;5.18;;
66663;SDS011;59683;51.428;-1.994;2023-08-17T09:10:08;10.13;;;5.18;;
66663;SDS011;59683;51.428;-1.994;2023-08-17T09:12:34;9.05;;;4.70;;
66663;SDS011;59683;51.428;-1.994;2023-08-17T09:15:00;6.82;;;4.07;;
66663;SDS011;59683;51.428;-1.994;2023-08-17T09:17:26;8.43;;;4.20;;
66663;SDS011;59683;51.428;-1.994;2023-08-17T09:19:52;7.75;;;4.50;;
66663;SDS011;59683;51.428;-1.994;2023-08-17T09:22:24;6.47;;;3.58;;
66663;SDS011;59683;51.428;-1.994;2023-08-17T09:24:51;6.68;;;3.55;;
66663;SDS011;59683;51.428;-1.994;2023-08-17T09:27:16;8.80;;;3.72;;
66663;SDS011;59683;51.428;-1.994;2023-08-17T09:29:42;6.72;;;3.75;;
66663;SDS011;59683;51.428;-1.994;2023-08-17T09:32:10;7.07;;;4.28;;
66663;SDS011;59683;51.428;-1.994;2023-08-17T09:34:36;7.78;;;3.80;;
66663;SDS011;59683;51.428;-1.994;2023-08-17T09:37:02;6.75;;;3.90;;
66663;SDS011;59683;51.428;-1.994;2023-08-17T09:39:29;7.07;;;3.85;;
66663;SDS011;59683;51.428;-1.994;2023-08-17T09:41:55;6.80;;;3.10;;
66663;SDS011;59683;51.428;-1.994;2023-08-17T09:44:20;7.30;;;2.80;;
66663;SDS011;59683;51.428;-1.994;2023-08-17T09:46:47;6.18;;;3.00;;
66663;SDS011;59683;51.428;-1.994;2023-08-17T09:49:12;5.95;;;2.67;;
66663;SDS011;59683;51.428;-1.994;2023-08-17T09:51:41;5.82;;;2.00;;
66663;SDS011;59683;51.428;-1.994;2023-08-17T09:54:07;5.28;;;2.25;;
66663;SDS011;59683;51.428;-1.994;2023-08-17T09:56:32;5.50;;;2.05;;
66663;SDS011;59683;51.428;-1.994;2023-08-17T09:58:59;8.18;;;2.33;;
66663;SDS011;59683;51.428;-1.994;2023-08-17T10:01:24;9.73;;;2.83;;
66663;SDS011;59683;51.428;-1.994;2023-08-17T10:03:52;3.97;;;1.73;;
66663;SDS011;59683;51.428;-1.994;2023-08-17T10:06:20;6.90;;;2.00;;
66663;SDS011;59683;51.428;-1.994;2023-08-17T10:08:49;8.88;;;1.90;;
66663;SDS011;59683;51.428;-1.994;2023-08-17T10:11:19;6.05;;;2.25;;
66663;SDS011;59683;51.428;-1.994;2023-08-17T10:14:02;5.32;;;1.90;;
66663;SDS011;59683;51.428;-1.994;2023-08-17T10:16:43;7.18;;;2.45;;
66663;SDS011;59683;51.428;-1.994;2023-08-17T10:19:17;7.05;;;2.17;;
66663;SDS011;59683;51.428;-1.994;2023-08-17T10:21:49;5.75;;;1.70;;
66663;SDS011;59683;51.428;-1.994;2023-08-17T10:24:19;6.35;;;2.00;;
66663;SDS011;59683;51.428;-1.994;2023-08-17T10:26:45;6.90;;;2.20;;
66663;SDS011;59683;51.428;-1.994;2023-08-17T10:29:10;3.72;;;1.77;;
66663;SDS011;59683;51.428;-1.994;2023-08-17T10:31:37;6.03;;;2.08;;
66663;SDS011;59683;51.428;-1.994;2023-08-17T10:34:03;7.25;;;1.88;;
66663;SDS011;59683;51.428;-1.994;2023-08-17T10:36:30;4.18;;;1.50;;
66663;SDS011;59683;51.428;-1.994;2023-08-17T10:41:47;4.88;;;1.73;;
66663;SDS011;59683;51.428;-1.994;2023-08-17T10:44:14;4.38;;;1.80;;
66663;SDS011;59683;51.428;-1.994;2023-08-17T10:46:39;4.97;;;2.17;;
66663;SDS011;59683;51.428;-1.994;2023-08-17T10:49:06;5.82;;;1.60;;
66663;SDS011;59683;51.428;-1.994;2023-08-17T10:52:04;4.82;;;1.45;;
66663;SDS011;59683;51.428;-1.994;2023-08-17T10:54:41;6.00;;;1.50;;
66663;SDS011;59683;51.428;-1.994;2023-08-17T11:00:36;5.55;;;1.63;;
66663;SDS011;59683;51.428;-1.994;2023-08-17T11:03:06;6.45;;;2.05;;
66663;SDS011;59683;51.428;-1.994;2023-08-17T11:05:35;5.40;;;2.70;;
66663;SDS011;59683;51.428;-1.994;2023-08-17T23:57:02;6.13;;;2.70;;
66663;SDS011;59683;51.428;-1.994;2023-08-17T23:59:28;13.60;;;4.00;;
